Lil D — WDC2462 — position and weather

sailwx.info

Track history (hours):
 
Tides and Currents Weather Stations Pressure Air Temp Water Temp Dewpoint Dewpoint Depression Visibility Wind Speed Wind Dir Waves Ship Positions

Lil D

Owner: Florida Marine, LLC, Mandeville, LA. More information available from US FCC via Universal Licensing System and Coast Guard Vessel Documentation Center.

Last reported at 2017-Sep-30 02:00 UTC. Time now 2017-Oct-22 19:08 UTC.
Position N 29°50' W 091°60'.
Warning: this ship's position is 22 days out of date.

Length 40 m; draft 3 m.

Type: Other ship. MMSI: 366993510.

Date/timePositionNaut miles runAvg speedWind from/ knotsBaromVisibWave heightAir tempDewpointWater temp
2017-Sep-30 02:00N 29°50' W 091°60'2 5.0
2017-Sep-30 01:30N 29°49' W 092°02'2 4.8
2017-Sep-30 01:00N 29°48' W 092°05'2 4.7
2017-Sep-30 00:30N 29°47' W 092°07'2 4.7
2017-Sep-30 00:00N 29°47' W 092°10'2 4.5
2017-Sep-29 23:30N 29°47' W 092°13'2 4.5
2017-Sep-29 23:00N 29°48' W 092°15'3 4.9
2017-Sep-29 22:30N 29°49' W 092°17'2 4.7
2017-Sep-29 22:00N 29°50' W 092°20'39 4.5
2017-Sep-29 13:15N 29°56' W 093°05'1 0.7
2017-Sep-29 12:18N 29°56' W 093°06'1 3.5
2017-Sep-29 12:00N 29°56' W 093°07'2 4.4
2017-Sep-29 11:30N 29°56' W 093°09'1 2.8
2017-Sep-29 11:00N 29°57' W 093°10'2 3.2
2017-Sep-29 10:30N 29°58' W 093°12'2 4.5
2017-Sep-29 10:00N 29°60' W 093°13'2 3.8
2017-Sep-29 09:30N 30°02' W 093°14'2 3.8
2017-Sep-29 09:00N 30°03' W 093°16'2 4.4
2017-Sep-29 08:30N 30°05' W 093°17'1 2.2
2017-Sep-29 08:00N 30°06' W 093°18'1 1.7
2017-Sep-29 07:30N 30°06' W 093°19'0 0.0
2017-Sep-29 07:00N 30°06' W 093°19'0 0.0
2017-Sep-29 06:30N 30°06' W 093°19'0 0.3
2017-Sep-29 06:00N 30°06' W 093°19'2 3.4
2017-Sep-29 05:30N 30°04' W 093°21'2 3.8
2017-Sep-29 05:00N 30°04' W 093°23'2 4.8
2017-Sep-29 04:30N 30°04' W 093°25'2 4.9
2017-Sep-29 04:00N 30°04' W 093°28'2 5.0
2017-Sep-29 03:30N 30°04' W 093°31'2 4.9
2017-Sep-29 03:00N 30°04' W 093°34'2 4.3
2017-Sep-29 02:30N 30°04' W 093°36'2 4.9
2017-Sep-29 02:00N 30°04' W 093°39'2 4.9
2017-Sep-29 01:30N 30°03' W 093°42'  
2017-Sep-21 06:37N 29°30' W 094°52'1 7.0
2017-Sep-21 06:30N 29°30' W 094°53'3 6.7
2017-Sep-21 06:00N 29°33' W 094°55'3 6.6
2017-Sep-21 05:30N 29°36' W 094°57'3 6.7
2017-Sep-21 05:00N 29°39' W 094°58'3 6.6
2017-Sep-21 04:30N 29°42' W 095°00'3 5.5
2017-Sep-21 03:59N 29°44' W 095°03'3 5.8
2017-Sep-21 03:29N 29°46' W 095°05'2 2.7
2017-Sep-21 02:51N 29°47' W 095°04'0 0.1
2017-Sep-21 02:30N 29°47' W 095°04'0 0.1
2017-Sep-21 00:11N 29°47' W 095°04'1 4.7
2017-Sep-20 23:59N 29°46' W 095°05'1 0.3
2017-Sep-20 19:51N 29°46' W 095°06'2 5.2
2017-Sep-20 19:27N 29°45' W 095°04'3 5.8
2017-Sep-20 19:00N 29°44' W 095°01'2 3.2
2017-Sep-20 18:30N 29°44' W 095°03'2 4.9
2017-Sep-20 18:00N 29°45' W 095°06'1 0.3
2017-Sep-20 16:11N 29°46' W 095°06'1 3.3
2017-Sep-20 15:58N 29°46' W 095°05'1 0.8
2017-Sep-20 14:39N 29°47' W 095°05'4 5.9
2017-Sep-20 13:56N 29°44' W 095°09'4 5.5
2017-Sep-20 13:12N 29°44' W 095°13'0 0.0
2017-Sep-20 08:52N 29°44' W 095°14'0 0.0
2017-Sep-20 08:28N 29°44' W 095°14'0 0.0
2017-Sep-20 07:51N 29°44' W 095°14'0 0.0
2017-Sep-20 06:42N 29°44' W 095°14'0 0.0
2017-Sep-20 06:24N 29°44' W 095°14'0 0.0
2017-Sep-20 05:57N 29°44' W 095°14'0 0.0
2017-Sep-20 05:27N 29°44' W 095°14'0 0.0
2017-Sep-20 02:28N 29°44' W 095°14'  
Track history (hours):
 
Tides and Currents Weather Stations Pressure Air Temp Water Temp Dewpoint Dewpoint Depression Visibility Wind Speed Wind Dir Waves Ship Positions

Lil D

Owner: Florida Marine, LLC, Mandeville, LA. More information available from US FCC via Universal Licensing System and Coast Guard Vessel Documentation Center.

Last reported at 2017-Sep-30 02:00 UTC. Time now 2017-Oct-22 19:08 UTC.
Position N 29°50' W 091°60'.
Warning: this ship's position is 22 days out of date.

Length 40 m; draft 3 m.

Type: Other ship. MMSI: 366993510.

Date/timePositionNaut miles runAvg speedWind from/ knotsBaromVisibWave heightAir tempDewpointWater temp
2017-Sep-30 02:00N 29°50' W 091°60'2 5.0
2017-Sep-30 01:30N 29°49' W 092°02'2 4.8
2017-Sep-30 01:00N 29°48' W 092°05'2 4.7
2017-Sep-30 00:30N 29°47' W 092°07'2 4.7
2017-Sep-30 00:00N 29°47' W 092°10'2 4.5
2017-Sep-29 23:30N 29°47' W 092°13'2 4.5
2017-Sep-29 23:00N 29°48' W 092°15'3 4.9
2017-Sep-29 22:30N 29°49' W 092°17'2 4.7
2017-Sep-29 22:00N 29°50' W 092°20'39 4.5
2017-Sep-29 13:15N 29°56' W 093°05'1 0.7
2017-Sep-29 12:18N 29°56' W 093°06'1 3.5
2017-Sep-29 12:00N 29°56' W 093°07'2 4.4
2017-Sep-29 11:30N 29°56' W 093°09'1 2.8
2017-Sep-29 11:00N 29°57' W 093°10'2 3.2
2017-Sep-29 10:30N 29°58' W 093°12'2 4.5
2017-Sep-29 10:00N 29°60' W 093°13'2 3.8
2017-Sep-29 09:30N 30°02' W 093°14'2 3.8
2017-Sep-29 09:00N 30°03' W 093°16'2 4.4
2017-Sep-29 08:30N 30°05' W 093°17'1 2.2
2017-Sep-29 08:00N 30°06' W 093°18'1 1.7
2017-Sep-29 07:30N 30°06' W 093°19'0 0.0
2017-Sep-29 07:00N 30°06' W 093°19'0 0.0
2017-Sep-29 06:30N 30°06' W 093°19'0 0.3
2017-Sep-29 06:00N 30°06' W 093°19'2 3.4
2017-Sep-29 05:30N 30°04' W 093°21'2 3.8
2017-Sep-29 05:00N 30°04' W 093°23'2 4.8
2017-Sep-29 04:30N 30°04' W 093°25'2 4.9
2017-Sep-29 04:00N 30°04' W 093°28'2 5.0
2017-Sep-29 03:30N 30°04' W 093°31'2 4.9
2017-Sep-29 03:00N 30°04' W 093°34'2 4.3
2017-Sep-29 02:30N 30°04' W 093°36'2 4.9
2017-Sep-29 02:00N 30°04' W 093°39'2 4.9
2017-Sep-29 01:30N 30°03' W 093°42'  
2017-Sep-21 06:37N 29°30' W 094°52'1 7.0
2017-Sep-21 06:30N 29°30' W 094°53'3 6.7
2017-Sep-21 06:00N 29°33' W 094°55'3 6.6
2017-Sep-21 05:30N 29°36' W 094°57'3 6.7
2017-Sep-21 05:00N 29°39' W 094°58'3 6.6
2017-Sep-21 04:30N 29°42' W 095°00'3 5.5
2017-Sep-21 03:59N 29°44' W 095°03'3 5.8
2017-Sep-21 03:29N 29°46' W 095°05'2 2.7
2017-Sep-21 02:51N 29°47' W 095°04'0 0.1
2017-Sep-21 02:30N 29°47' W 095°04'0 0.1
2017-Sep-21 00:11N 29°47' W 095°04'1 4.7
2017-Sep-20 23:59N 29°46' W 095°05'1 0.3
2017-Sep-20 19:51N 29°46' W 095°06'2 5.2
2017-Sep-20 19:27N 29°45' W 095°04'3 5.8
2017-Sep-20 19:00N 29°44' W 095°01'2 3.2
2017-Sep-20 18:30N 29°44' W 095°03'2 4.9
2017-Sep-20 18:00N 29°45' W 095°06'1 0.3
2017-Sep-20 16:11N 29°46' W 095°06'1 3.3
2017-Sep-20 15:58N 29°46' W 095°05'1 0.8
2017-Sep-20 14:39N 29°47' W 095°05'4 5.9
2017-Sep-20 13:56N 29°44' W 095°09'4 5.5
2017-Sep-20 13:12N 29°44' W 095°13'0 0.0
2017-Sep-20 08:52N 29°44' W 095°14'0 0.0
2017-Sep-20 08:28N 29°44' W 095°14'0 0.0
2017-Sep-20 07:51N 29°44' W 095°14'0 0.0
2017-Sep-20 06:42N 29°44' W 095°14'0 0.0
2017-Sep-20 06:24N 29°44' W 095°14'0 0.0
2017-Sep-20 05:57N 29°44' W 095°14'0 0.0
2017-Sep-20 05:27N 29°44' W 095°14'0 0.0
2017-Sep-20 02:28N 29°44' W 095°14'  

Dump ship's entire track history